Terminal Aerodrome Forecast
Issued by NWS

Home | Current Version | Previous Version | Text Only | Print | Product List | Glossary On
Versions: 1 2 3 4 5 6 7 8 9 10 11 12 13 14 15 16 17 18
000
FTUS43 KEAX 060749 AAA
TAFSTJ
TAF AMD
KSTJ 060749Z 0608/0706 33011KT P6SM SCT020 OVC040
      TEMPO 0608/0611 BKN020
     FM061100 33016G24KT P6SM SCT020 OVC040
     FM061400 32014G22KT P6SM SCT120
     FM062200 30008KT P6SM BKN200=

USA.gov is the U.S. government's official web portal to all federal, state and local government web resources and services.